createdAt,value
2022-08-05T00:01:28.103Z,20.79
2022-08-05T00:06:33.232Z,20.72
2022-08-05T00:11:49.497Z,20.69
2022-08-05T00:17:01.973Z,20.59
2022-08-05T00:22:06.067Z,20.49
2022-08-05T00:27:16.585Z,20.41
2022-08-05T00:32:20.373Z,20.35
2022-08-05T00:37:35.574Z,20.31
2022-08-05T00:42:53.495Z,20.28
2022-08-05T00:48:05.500Z,20.22
2022-08-05T00:53:09.892Z,20.14
2022-08-05T00:58:33.834Z,20.10
2022-08-05T01:03:36.873Z,20.08
2022-08-05T01:08:44.341Z,20.06
2022-08-05T01:13:59.895Z,20.03
2022-08-05T01:19:14.310Z,20.04
2022-08-05T01:24:34.602Z,20.03
2022-08-05T01:29:44.892Z,20.06
2022-08-05T01:34:56.763Z,20.03
2022-08-05T01:40:01.031Z,19.96
2022-08-05T01:45:08.077Z,20.02
2022-08-05T01:50:16.025Z,19.94
2022-08-05T01:55:23.973Z,19.91
2022-08-05T02:00:31.136Z,19.90
2022-08-05T02:05:37.933Z,19.84
2022-08-05T02:10:52.448Z,19.81
2022-08-05T02:16:05.041Z,19.69
2022-08-05T02:21:15.533Z,19.66
2022-08-05T02:26:23.308Z,19.57
2022-08-05T02:31:34.863Z,19.49
2022-08-05T02:36:42.776Z,19.47
2022-08-05T02:42:00.614Z,19.46
2022-08-05T02:47:08.657Z,19.44
2022-08-05T02:52:29.475Z,19.40
2022-08-05T02:58:10.734Z,19.40
2022-08-05T03:03:01.658Z,19.41
2022-08-05T03:08:08.513Z,19.41
2022-08-05T03:13:16.903Z,19.38
2022-08-05T03:18:24.750Z,19.34
2022-08-05T03:23:34.288Z,19.29
2022-08-05T03:28:38.460Z,19.30
2022-08-05T03:33:51.102Z,19.27
2022-08-05T03:38:54.707Z,19.23
2022-08-05T03:44:08.461Z,19.19
2022-08-05T03:49:16.058Z,19.16
2022-08-05T03:55:34.325Z,19.14
2022-08-05T03:59:55.012Z,19.07
2022-08-05T04:05:01.304Z,19.00
2022-08-05T04:10:05.022Z,18.95
2022-08-05T04:15:09.022Z,18.88
2022-08-05T04:20:22.141Z,18.81
2022-08-05T04:25:56.670Z,18.81
2022-08-05T04:30:49.850Z,18.83
2022-08-05T04:36:11.290Z,18.80
2022-08-05T04:41:17.501Z,18.75
2022-08-05T04:46:28.164Z,18.66
2022-08-05T04:51:33.099Z,18.62
2022-08-05T04:56:37.854Z,18.56
2022-08-05T05:02:07.817Z,18.47
2022-08-05T05:07:09.434Z,18.44
2022-08-05T05:12:29.237Z,18.36
2022-08-05T05:17:55.488Z,18.31
2022-08-05T05:23:08.415Z,18.31
2022-08-05T05:28:23.005Z,18.25
2022-08-05T05:33:27.873Z,18.22
2022-08-05T05:38:32.246Z,18.26
2022-08-05T05:43:56.663Z,18.28
2022-08-05T05:48:58.417Z,18.33
2022-08-05T05:54:11.519Z,18.50
2022-08-05T05:59:14.652Z,18.57
2022-08-05T06:04:17.708Z,18.66
2022-08-05T06:09:25.852Z,18.71
2022-08-05T06:14:40.273Z,18.84
2022-08-05T06:19:43.470Z,18.83
2022-08-05T06:25:00.828Z,18.84
2022-08-05T06:30:20.228Z,18.96
2022-08-05T06:36:07.469Z,19.08
2022-08-05T06:40:49.399Z,19.08
2022-08-05T06:46:06.866Z,19.07
2022-08-05T06:51:23.882Z,19.10
2022-08-05T06:56:35.203Z,19.18
2022-08-05T07:01:40.772Z,19.45
2022-08-05T07:06:45.497Z,19.50
2022-08-05T07:11:55.856Z,19.35
2022-08-05T07:17:59.794Z,19.35
2022-08-05T07:22:28.271Z,19.30
2022-08-05T07:27:57.086Z,19.43
2022-08-05T07:32:57.386Z,19.52
2022-08-05T07:38:00.658Z,19.65
2022-08-05T07:43:14.638Z,19.72
2022-08-05T07:49:03.026Z,20.14
2022-08-05T07:53:50.638Z,20.44
2022-08-05T07:58:58.977Z,20.70
2022-08-05T08:04:03.111Z,20.86
2022-08-05T08:09:07.322Z,21.14
2022-08-05T08:14:11.802Z,21.48
2022-08-05T08:20:22.899Z,21.69
2022-08-05T08:24:51.235Z,22.34
2022-08-05T08:30:05.503Z,22.51
2022-08-05T08:35:20.809Z,22.57
2022-08-05T08:40:31.483Z,22.48
2022-08-05T08:45:38.672Z,22.43
2022-08-05T08:51:03.355Z,22.52
2022-08-05T08:56:09.200Z,23.12
2022-08-05T09:01:15.746Z,23.63
2022-08-05T09:06:21.382Z,23.92
2022-08-05T09:11:50.685Z,23.95
2022-08-05T09:16:52.927Z,24.12
2022-08-05T09:22:22.001Z,24.14
2022-08-05T09:28:03.847Z,24.14
2022-08-05T09:33:02.733Z,24.22
2022-08-05T09:38:17.690Z,24.38
2022-08-05T09:43:40.804Z,24.42
2022-08-05T09:49:03.696Z,24.28
2022-08-05T09:54:11.505Z,24.15
2022-08-05T09:59:17.316Z,24.02
2022-08-05T10:04:29.184Z,23.65
2022-08-05T10:09:44.871Z,23.51
2022-08-05T10:14:48.556Z,23.46
2022-08-05T10:20:03.754Z,23.32
2022-08-05T10:25:14.257Z,22.84
2022-08-05T10:31:20.587Z,22.77
2022-08-05T10:35:44.340Z,22.82
2022-08-05T10:40:58.141Z,22.87
2022-08-05T10:46:06.435Z,23.27
2022-08-05T10:51:22.295Z,23.18
2022-08-05T10:56:27.304Z,23.38
2022-08-05T11:01:55.095Z,23.42
2022-08-05T11:07:11.966Z,23.21
2022-08-05T11:12:50.226Z,23.30
2022-08-05T11:17:59.858Z,23.70
2022-08-05T11:24:04.527Z,23.85
2022-08-05T11:29:12.757Z,23.83
2022-08-05T11:34:22.521Z,23.61
2022-08-05T11:39:55.645Z,23.62
2022-08-05T11:45:14.358Z,24.07
2022-08-05T11:50:26.371Z,24.57
2022-08-05T11:55:31.938Z,24.74
2022-08-05T12:00:41.269Z,24.98
2022-08-05T12:05:44.854Z,25.35
2022-08-05T12:10:50.619Z,25.27
2022-08-05T12:15:55.866Z,25.02
2022-08-05T12:21:11.014Z,25.27
2022-08-05T12:26:16.799Z,25.15
2022-08-05T12:31:23.675Z,24.74
2022-08-05T12:36:38.228Z,24.82
2022-08-05T12:41:43.918Z,24.98
2022-08-05T12:46:53.949Z,24.80
2022-08-05T12:52:12.660Z,24.62
2022-08-05T12:57:23.223Z,24.77
2022-08-05T13:02:30.747Z,25.10
2022-08-05T13:07:59.751Z,25.09
2022-08-05T13:12:58.790Z,24.94
2022-08-05T13:18:01.872Z,25.53
2022-08-05T13:23:07.379Z,25.80
2022-08-05T13:28:12.950Z,25.85
2022-08-05T13:34:24.440Z,25.70
2022-08-05T13:38:42.653Z,25.41
2022-08-05T13:43:54.804Z,25.39
2022-08-05T13:49:01.021Z,25.51
2022-08-05T13:54:12.594Z,25.70
2022-08-05T13:59:19.427Z,25.62
2022-08-05T14:04:41.148Z,25.83
2022-08-05T14:09:46.361Z,25.54
2022-08-05T14:14:51.559Z,25.22
2022-08-05T14:20:00.847Z,25.23
2022-08-05T14:25:19.011Z,24.72
2022-08-05T14:30:27.907Z,24.76
2022-08-05T14:35:36.257Z,24.66
2022-08-05T14:40:54.191Z,24.78
2022-08-05T14:45:58.744Z,24.74
2022-08-05T14:51:03.149Z,23.98
2022-08-05T14:56:06.705Z,24.23
2022-08-05T15:01:16.199Z,24.53
2022-08-05T15:06:20.850Z,24.41
2022-08-05T15:11:53.037Z,24.13
2022-08-05T15:16:57.933Z,24.09
2022-08-05T15:22:01.669Z,24.22
2022-08-05T15:27:05.135Z,23.84
2022-08-05T15:32:13.501Z,23.55
2022-08-05T15:37:22.208Z,23.29
2022-08-05T15:42:55.072Z,23.36
2022-08-05T15:48:05.597Z,23.51
2022-08-05T15:53:10.852Z,23.68
2022-08-05T15:58:16.581Z,23.53
2022-08-05T16:03:21.600Z,23.75
2022-08-05T16:08:24.611Z,23.59
2022-08-05T16:13:34.754Z,23.55
2022-08-05T16:18:52.285Z,23.74
2022-08-05T16:23:58.061Z,23.72
2022-08-05T16:29:04.621Z,23.27
2022-08-05T16:34:12.718Z,23.48
2022-08-05T16:39:18.147Z,24.72
2022-08-05T16:44:25.686Z,25.29
2022-08-05T16:49:30.129Z,25.64
2022-08-05T16:54:33.324Z,25.04
2022-08-05T17:00:03.043Z,24.49
2022-08-05T17:05:00.582Z,23.58
2022-08-05T17:10:03.953Z,23.30
2022-08-05T17:15:09.254Z,22.91
2022-08-05T17:20:14.755Z,22.54
2022-08-05T17:25:33.691Z,22.53
2022-08-05T17:30:50.346Z,22.37
2022-08-05T17:36:08.422Z,22.09
2022-08-05T17:42:16.368Z,21.91
2022-08-05T17:46:36.569Z,21.64
2022-08-05T17:51:41.127Z,21.46
2022-08-05T17:56:44.618Z,21.25
2022-08-05T18:01:50.174Z,21.28
2022-08-05T18:06:54.552Z,21.08
2022-08-05T18:12:03.862Z,21.04
2022-08-05T18:17:07.086Z,20.99
2022-08-05T18:22:36.220Z,21.06
2022-08-05T18:27:39.453Z,20.77
2022-08-05T18:33:00.193Z,20.67
2022-08-05T18:38:05.639Z,20.56
2022-08-05T18:43:09.189Z,20.16
2022-08-05T18:48:31.550Z,19.90
2022-08-05T18:53:43.121Z,19.61
2022-08-05T18:58:50.845Z,19.42
2022-08-05T19:03:56.820Z,19.34
2022-08-05T19:09:01.557Z,19.25
2022-08-05T19:14:15.217Z,19.08
2022-08-05T19:19:27.536Z,18.94
2022-08-05T19:24:35.182Z,18.79
2022-08-05T19:29:38.816Z,18.72
2022-08-05T19:34:42.082Z,18.55
2022-08-05T19:40:00.572Z,18.40
2022-08-05T19:45:06.428Z,18.24
2022-08-05T19:50:10.567Z,18.19
2022-08-05T19:56:13.641Z,18.15
2022-08-05T20:00:39.599Z,18.09
2022-08-05T20:05:50.377Z,18.03
2022-08-05T20:10:56.722Z,18.01
2022-08-05T20:16:00.195Z,17.91
2022-08-05T20:21:04.693Z,17.79
2022-08-05T20:26:16.474Z,17.68
2022-08-05T20:31:28.453Z,17.47
2022-08-05T20:36:44.899Z,17.40
2022-08-05T20:41:49.281Z,17.28
2022-08-05T20:46:52.477Z,17.20
2022-08-05T20:51:57.348Z,17.16
2022-08-05T20:57:03.473Z,17.06
2022-08-05T21:02:06.658Z,16.94
2022-08-05T21:07:09.967Z,16.84
2022-08-05T21:12:19.386Z,16.80
2022-08-05T21:17:22.452Z,16.78
2022-08-05T21:22:25.572Z,16.80
2022-08-05T21:27:38.641Z,16.76
2022-08-05T21:32:42.083Z,16.75
2022-08-05T21:37:52.949Z,16.70
2022-08-05T21:42:59.093Z,16.68
2022-08-05T21:48:02.527Z,16.66
2022-08-05T21:53:17.506Z,16.58
2022-08-05T21:58:28.832Z,16.57
2022-08-05T22:03:48.444Z,16.52
2022-08-05T22:08:54.741Z,16.54
2022-08-05T22:14:19.654Z,16.50
2022-08-05T22:20:03.179Z,16.36
2022-08-05T22:25:03.320Z,16.41
2022-08-05T22:30:09.242Z,16.38
2022-08-05T22:35:14.175Z,16.36
2022-08-05T22:40:20.434Z,16.29
2022-08-05T22:45:26.534Z,16.20
2022-08-05T22:50:29.513Z,16.09
2022-08-05T22:55:56.413Z,16.04
2022-08-05T23:00:57.123Z,15.99
2022-08-05T23:06:00.188Z,15.89
2022-08-05T23:11:04.208Z,15.86
2022-08-05T23:16:09.190Z,15.76
2022-08-05T23:21:12.124Z,15.66
2022-08-05T23:26:19.974Z,15.60
2022-08-05T23:31:25.981Z,15.52
2022-08-05T23:36:39.865Z,15.45
2022-08-05T23:41:48.700Z,15.38
2022-08-05T23:46:53.341Z,15.28
2022-08-05T23:52:16.693Z,15.20
2022-08-05T23:57:19.596Z,15.18
